Time;durP1;ratioP1;P1;durP2;ratioP2;P2;SDS_P1;SDS_P2;PMS_P1;PMS_P2;Temp;Humidity;BMP_temperature;BMP_pressure;BME280_temperature;BME280_humidity;BME280_pressure;Samples;Min_cycle;Max_cycle;Signal;HPM_P1;HPM_P2
2023/11/26 00:00:47;;;;;;;7.05;6.55;;;;;;;;;;6305981;28;20040;-78
2023/11/26 00:03:50;;;;;;;4.18;3.88;;;;;;;;;;6292771;28;20039;-79
2023/11/26 00:06:52;;;;;;;5.93;5.55;;;;;;;;;;6298561;28;20032;-79
2023/11/26 00:09:56;;;;;;;5.35;5.05;;;;;;;;;;6300103;28;20055;-81
2023/11/26 00:12:58;;;;;;;3.45;3.25;;;;;;;;;;6301696;28;20064;-79
2023/11/26 00:16:03;;;;;;;5.15;4.75;;;;;;;;;;6296905;28;20060;-79
2023/11/26 00:19:06;;;;;;;3.58;3.38;;;;;;;;;;6265727;28;20048;-77
2023/11/26 00:22:09;;;;;;;3.65;3.38;;;;;;;;;;6283695;28;20056;-77
2023/11/26 00:25:11;;;;;;;4.32;3.92;;;;;;;;;;6287651;28;20048;-78
2023/11/26 00:28:14;;;;;;;4.63;4.32;;;;;;;;;;6287961;28;20040;-78
2023/11/26 00:31:16;;;;;;;2.97;1.67;;;;;;;;;;6287177;28;20271;-77
2023/11/26 00:34:19;;;;;;;8.63;7.38;;;;;;;;;;6287373;28;20536;-77
2023/11/26 00:37:22;;;;;;;5.55;5.18;;;;;;;;;;6285426;28;20190;-78
2023/11/26 00:40:24;;;;;;;3.55;3.25;;;;;;;;;;6289491;28;20228;-78
2023/11/26 00:43:27;;;;;;;3.53;3.22;;;;;;;;;;6272335;28;20145;-78
2023/11/26 00:46:29;;;;;;;2.90;2.70;;;;;;;;;;6284208;28;20055;-78
2023/11/26 00:49:36;;;;;;;8.43;5.80;;;;;;;;;;6241241;28;20041;-77
2023/11/26 00:52:38;;;;;;;10.98;8.80;;;;;;;;;;6271422;28;20092;-77
2023/11/26 00:55:40;;;;;;;6.70;4.22;;;;;;;;;;6284029;28;20078;-76
2023/11/26 00:58:44;;;;;;;4.40;4.10;;;;;;;;;;6249812;28;20127;-78
2023/11/26 01:01:46;;;;;;;3.72;1.77;;;;;;;;;;6293355;28;20717;-78
2023/11/26 01:04:50;;;;;;;5.40;4.95;;;;;;;;;;6278643;28;20040;-78
2023/11/26 01:07:54;;;;;;;6.97;5.57;;;;;;;;;;6277416;28;20036;-76
2023/11/26 01:10:56;;;;;;;23.85;12.70;;;;;;;;;;6275560;28;20060;-76
2023/11/26 01:14:00;;;;;;;6.47;5.97;;;;;;;;;;6293161;28;20067;-77
2023/11/26 01:17:03;;;;;;;7.03;6.43;;;;;;;;;;6275635;28;20055;-77
2023/11/26 01:20:09;;;;;;;7.57;7.18;;;;;;;;;;6291476;28;20117;-77
2023/11/26 01:23:13;;;;;;;7.65;7.15;;;;;;;;;;6278897;28;20138;-77
2023/11/26 01:26:16;;;;;;;5.60;5.20;;;;;;;;;;6264344;28;20048;-77
2023/11/26 01:29:18;;;;;;;4.10;2.80;;;;;;;;;;6277765;28;20714;-78
2023/11/26 01:32:22;;;;;;;6.25;5.65;;;;;;;;;;6275293;28;20040;-78
2023/11/26 01:35:24;;;;;;;7.47;6.78;;;;;;;;;;6298219;28;20040;-77
2023/11/26 01:38:27;;;;;;;7.45;6.95;;;;;;;;;;6291956;28;20620;-77
2023/11/26 01:41:30;;;;;;;4.15;3.85;;;;;;;;;;6275199;28;20078;-77
2023/11/26 01:44:32;;;;;;;4.13;3.75;;;;;;;;;;6304341;28;20040;-77
2023/11/26 01:47:35;;;;;;;5.57;5.28;;;;;;;;;;6289991;28;20053;-77
2023/11/26 01:50:37;;;;;;;3.75;3.47;;;;;;;;;;6289739;28;20123;-78
2023/11/26 01:53:45;;;;;;;4.60;4.30;;;;;;;;;;6264568;28;20055;-78
2023/11/26 01:56:48;;;;;;;6.13;5.72;;;;;;;;;;6307426;28;20058;-77
2023/11/26 01:59:50;;;;;;;4.05;3.78;;;;;;;;;;6288758;28;20628;-77
2023/11/26 02:02:52;;;;;;;2.72;2.53;;;;;;;;;;6299408;28;20045;-78
2023/11/26 02:05:54;;;;;;;4.60;4.30;;;;;;;;;;6271123;28;20662;-77
2023/11/26 02:08:57;;;;;;;5.25;4.95;;;;;;;;;;6283621;28;20045;-77
2023/11/26 02:11:59;;;;;;;4.82;4.43;;;;;;;;;;6282934;28;20136;-77
2023/11/26 02:15:03;;;;;;;7.18;6.65;;;;;;;;;;6300572;28;20051;-77
2023/11/26 02:18:07;;;;;;;4.55;4.25;;;;;;;;;;6282987;28;20186;-78
2023/11/26 02:21:11;;;;;;;4.32;4.03;;;;;;;;;;6278108;28;20045;-77
2023/11/26 02:24:19;;;;;;;5.32;4.93;;;;;;;;;;6297061;28;20052;-78
2023/11/26 02:27:21;;;;;;;3.63;3.42;;;;;;;;;;6296444;28;20041;-78
2023/11/26 02:30:24;;;;;;;4.47;4.18;;;;;;;;;;6296856;28;20025;-77
2023/11/26 02:33:29;;;;;;;6.28;5.70;;;;;;;;;;6270319;28;20045;-77
2023/11/26 02:36:52;;;;;;;3.97;3.67;;;;;;;;;;6295842;28;20100;-78
2023/11/26 02:39:54;;;;;;;3.47;3.28;;;;;;;;;;6314651;28;20082;-78
2023/11/26 02:42:59;;;;;;;5.03;4.72;;;;;;;;;;6298131;28;20048;-78
2023/11/26 02:46:02;;;;;;;4.03;3.72;;;;;;;;;;6309674;28;20044;-77
2023/11/26 02:49:08;;;;;;;4.53;4.22;;;;;;;;;;6293075;28;20060;-78
2023/11/26 02:52:10;;;;;;;5.32;4.95;;;;;;;;;;6310879;28;20105;-77
2023/11/26 02:55:13;;;;;;;8.07;7.57;;;;;;;;;;6315826;28;20036;-78
2023/11/26 02:58:16;;;;;;;3.85;3.55;;;;;;;;;;6289011;28;20060;-77
2023/11/26 03:01:25;;;;;;;3.90;3.65;;;;;;;;;;6255009;28;20044;-78
2023/11/26 03:04:27;;;;;;;4.40;4.10;;;;;;;;;;6292514;28;20029;-77
2023/11/26 03:07:29;;;;;;;4.07;3.78;;;;;;;;;;6281708;28;20167;-77
2023/11/26 03:13:52;;;;;;;3.53;3.22;;;;;;;;;;6278034;28;20194;-78
2023/11/26 03:16:59;;;;;;;5.35;5.03;;;;;;;;;;6267880;28;20907;-77
2023/11/26 03:20:02;;;;;;;3.78;3.47;;;;;;;;;;6272911;28;20037;-78
2023/11/26 03:23:05;;;;;;;3.90;3.70;;;;;;;;;;6256521;28;20135;-78
2023/11/26 03:26:07;;;;;;;4.38;4.07;;;;;;;;;;6291554;28;20041;-78
2023/11/26 03:29:10;;;;;;;4.30;4.00;;;;;;;;;;6291352;28;20099;-78
2023/11/26 03:32:12;;;;;;;6.15;5.80;;;;;;;;;;6289268;28;20056;-78
2023/11/26 03:35:16;;;;;;;3.80;3.45;;;;;;;;;;6288432;28;20048;-77
2023/11/26 03:38:19;;;;;;;3.97;3.67;;;;;;;;;;6286192;28;20049;-77
2023/11/26 03:41:23;;;;;;;3.45;3.25;;;;;;;;;;6271325;28;20065;-78
2023/11/26 03:44:27;;;;;;;4.85;4.47;;;;;;;;;;6289118;28;20048;-79
2023/11/26 03:47:29;;;;;;;4.00;3.70;;;;;;;;;;6269537;28;20056;-77
2023/11/26 03:50:32;;;;;;;4.70;4.40;;;;;;;;;;6280268;28;20063;-79
2023/11/26 03:53:34;;;;;;;5.13;4.72;;;;;;;;;;6249222;28;20074;-77
2023/11/26 03:56:37;;;;;;;5.25;4.93;;;;;;;;;;6286580;28;20044;-78
2023/11/26 03:59:43;;;;;;;5.72;5.22;;;;;;;;;;6284499;28;20183;-78
2023/11/26 04:02:46;;;;;;;6.97;6.38;;;;;;;;;;6270720;28;20079;-78
2023/11/26 04:05:50;;;;;;;4.13;3.80;;;;;;;;;;6286637;28;20032;-79
2023/11/26 04:08:54;;;;;;;4.93;4.53;;;;;;;;;;6270408;28;20059;-77
2023/11/26 04:11:58;;;;;;;5.40;5.00;;;;;;;;;;6271069;28;20127;-79
2023/11/26 04:15:06;;;;;;;4.13;3.83;;;;;;;;;;6251615;28;20055;-79
2023/11/26 04:18:09;;;;;;;5.85;5.45;;;;;;;;;;6285352;28;20055;-78
2023/11/26 04:32:53;;;;;;;3.85;2.85;;;;;;;;;;6250642;27;20781;-87
2023/11/26 04:35:56;;;;;;;4.65;3.55;;;;;;;;;;6211721;28;20045;-87
2023/11/26 04:38:59;;;;;;;5.68;4.30;;;;;;;;;;6205453;28;20826;-88
2023/11/26 04:42:02;;;;;;;5.30;4.00;;;;;;;;;;6234296;28;20045;-87
2023/11/26 04:45:05;;;;;;;4.60;4.07;;;;;;;;;;6234445;28;20259;-88
2023/11/26 04:48:08;;;;;;;6.95;5.05;;;;;;;;;;6274866;28;20766;-88
2023/11/26 07:18:45;;;;;;;;;;;;;;;;;;6237257;27;3071651;-75
2023/11/26 07:21:47;;;;;;;6.70;4.60;;;;;;;;;;6305302;28;19931;-78
2023/11/26 07:24:49;;;;;;;8.43;7.57;;;;;;;;;;6265013;28;20133;-80
2023/11/26 07:27:52;;;;;;;8.07;5.47;;;;;;;;;;6297531;28;20508;-77
2023/11/26 07:30:54;;;;;;;6.18;4.53;;;;;;;;;;6282232;28;20045;-79
2023/11/26 07:33:57;;;;;;;7.68;6.80;;;;;;;;;;6281613;28;20052;-81
2023/11/26 07:37:00;;;;;;;7.85;7.10;;;;;;;;;;6294420;28;20045;-79
2023/11/26 07:40:05;;;;;;;6.43;5.47;;;;;;;;;;6270771;28;20056;-80
2023/11/26 07:43:08;;;;;;;8.70;7.72;;;;;;;;;;6287701;28;20048;-79
2023/11/26 07:46:12;;;;;;;5.03;3.33;;;;;;;;;;6282337;28;20661;-80
2023/11/26 07:49:15;;;;;;;8.05;7.03;;;;;;;;;;6294658;28;20051;-79
2023/11/26 07:52:19;;;;;;;8.63;6.13;;;;;;;;;;6256811;28;20053;-80
2023/11/26 07:55:21;;;;;;;7.68;6.72;;;;;;;;;;6284055;28;20541;-82
2023/11/26 07:58:25;;;;;;;9.55;8.40;;;;;;;;;;6305936;28;20031;-79
2023/11/26 08:01:27;;;;;;;13.05;9.35;;;;;;;;;;6312089;28;20060;-80
2023/11/26 08:04:29;;;;;;;8.43;7.53;;;;;;;;;;6262024;28;20143;-79
2023/11/26 08:07:36;;;;;;;7.13;6.43;;;;;;;;;;6294525;28;20051;-79
2023/11/26 08:10:38;;;;;;;7.93;6.15;;;;;;;;;;6299221;28;20064;-80
2023/11/26 08:26:17;;;;;;;5.93;5.22;;;;;;;;;;6367122;27;20779;-75
2023/11/26 08:29:19;;;;;;;5.90;4.68;;;;;;;;;;6348132;27;20052;-75
2023/11/26 08:32:24;;;;;;;6.53;4.75;;;;;;;;;;6346337;28;20262;-77
2023/11/26 08:35:28;;;;;;;8.57;6.63;;;;;;;;;;6335313;27;20048;-76
2023/11/26 08:38:33;;;;;;;8.52;6.47;;;;;;;;;;6351363;27;20055;-77
2023/11/26 08:41:36;;;;;;;6.57;5.22;;;;;;;;;;6401043;27;20062;-74
2023/11/26 08:44:38;;;;;;;9.13;8.18;;;;;;;;;;6350422;27;20063;-76
2023/11/26 08:47:47;;;;;;;8.35;6.88;;;;;;;;;;6379945;27;20054;-76
2023/11/26 08:50:49;;;;;;;12.68;11.48;;;;;;;;;;6367404;27;20046;-76
2023/11/26 08:53:52;;;;;;;8.38;6.57;;;;;;;;;;6372588;27;20047;-77
2023/11/26 08:56:55;;;;;;;9.00;6.43;;;;;;;;;;6334132;27;20060;-76
2023/11/26 08:59:58;;;;;;;9.75;5.70;;;;;;;;;;6328170;27;20047;-76
2023/11/26 09:03:00;;;;;;;7.05;5.70;;;;;;;;;;6346730;27;20131;-76
2023/11/26 09:06:02;;;;;;;8.60;7.38;;;;;;;;;;6329983;27;20051;-76
2023/11/26 09:09:05;;;;;;;11.15;7.13;;;;;;;;;;6340124;27;20051;-76
2023/11/26 09:12:07;;;;;;;10.50;7.85;;;;;;;;;;6343331;27;20145;-76
2023/11/26 09:15:10;;;;;;;10.93;7.97;;;;;;;;;;6361465;27;20044;-74
2023/11/26 09:18:12;;;;;;;11.90;9.55;;;;;;;;;;6342448;27;20520;-74
2023/11/26 09:21:16;;;;;;;10.45;9.45;;;;;;;;;;6346682;27;20354;-76
2023/11/26 09:24:19;;;;;;;6.40;5.60;;;;;;;;;;6354779;27;20038;-75
2023/11/26 09:27:21;;;;;;;7.13;5.20;;;;;;;;;;6337915;28;20051;-76
2023/11/26 09:30:24;;;;;;;9.82;9.02;;;;;;;;;;6325192;27;20066;-75
2023/11/26 09:33:26;;;;;;;7.85;7.15;;;;;;;;;;6341520;27;20429;-74
2023/11/26 09:36:28;;;;;;;7.53;6.82;;;;;;;;;;6335781;27;20443;-76
2023/11/26 09:39:34;;;;;;;5.10;4.38;;;;;;;;;;6337014;27;20047;-74
2023/11/26 09:42:36;;;;;;;5.55;4.45;;;;;;;;;;6329706;27;20522;-76
2023/11/26 09:45:39;;;;;;;7.72;6.93;;;;;;;;;;6335301;27;20491;-76
2023/11/26 09:48:43;;;;;;;5.57;4.13;;;;;;;;;;6337904;27;20036;-76
2023/11/26 09:51:48;;;;;;;5.47;4.55;;;;;;;;;;6344655;28;20063;-75
2023/11/26 09:54:50;;;;;;;5.25;4.55;;;;;;;;;;6339412;27;20072;-76
2023/11/26 09:57:53;;;;;;;7.53;6.88;;;;;;;;;;6325069;27;21501;-75
2023/11/26 10:00:55;;;;;;;5.10;3.65;;;;;;;;;;6334139;27;20067;-76
2023/11/26 10:04:04;;;;;;;7.53;6.75;;;;;;;;;;6348411;27;20039;-76
2023/11/26 10:07:06;;;;;;;7.95;6.20;;;;;;;;;;6333219;28;20054;-76
2023/11/26 10:10:09;;;;;;;5.85;3.90;;;;;;;;;;6312263;27;20056;-74
2023/11/26 10:13:12;;;;;;;5.55;5.03;;;;;;;;;;6340355;27;20065;-76
2023/11/26 10:16:33;;;;;;;7.68;6.90;;;;;;;;;;6332284;27;20127;-76
2023/11/26 10:19:39;;;;;;;10.00;9.07;;;;;;;;;;6323852;28;20044;-75
2023/11/26 10:22:45;;;;;;;9.15;8.35;;;;;;;;;;6341937;28;20437;-77
2023/11/26 10:25:47;;;;;;;7.10;5.43;;;;;;;;;;6329271;28;20051;-75
2023/11/26 10:29:12;;;;;;;7.55;6.95;;;;;;;;;;6307086;27;20051;-75
2023/11/26 10:32:17;;;;;;;4.57;3.72;;;;;;;;;;6347987;27;20702;-75
2023/11/26 10:35:19;;;;;;;6.25;4.72;;;;;;;;;;6319461;28;20437;-75
2023/11/26 10:38:24;;;;;;;5.93;3.85;;;;;;;;;;6342307;27;20056;-76
2023/11/26 10:41:26;;;;;;;7.85;4.65;;;;;;;;;;6316196;28;20044;-75
2023/11/26 10:44:29;;;;;;;5.03;3.75;;;;;;;;;;6333653;27;20035;-74
2023/11/26 10:47:35;;;;;;;4.60;2.78;;;;;;;;;;6312324;28;20062;-75
2023/11/26 10:50:53;;;;;;;6.13;5.53;;;;;;;;;;6315845;28;20071;-75
2023/11/26 10:54:10;;;;;;;7.43;6.85;;;;;;;;;;6321171;27;20693;-75
2023/11/26 10:57:13;;;;;;;4.28;3.88;;;;;;;;;;6337581;27;20476;-76
2023/11/26 11:00:19;;;;;;;6.25;5.75;;;;;;;;;;6315728;28;20155;-74
2023/11/26 11:03:23;;;;;;;7.35;6.70;;;;;;;;;;6341271;27;20750;-74
2023/11/26 11:06:27;;;;;;;7.88;7.28;;;;;;;;;;6334006;27;20054;-75
2023/11/26 11:09:41;;;;;;;7.22;6.60;;;;;;;;;;6320574;27;20526;-75
2023/11/26 11:12:55;;;;;;;7.30;6.60;;;;;;;;;;6360400;27;20047;-75
2023/11/26 11:15:58;;;;;;;9.15;8.35;;;;;;;;;;6343659;27;20047;-74
2023/11/26 11:19:00;;;;;;;4.75;3.30;;;;;;;;;;6325714;28;20040;-76
2023/11/26 11:22:02;;;;;;;6.45;5.90;;;;;;;;;;6309912;28;20051;-78
2023/11/26 11:25:09;;;;;;;5.68;3.88;;;;;;;;;;6338857;27;20040;-77
2023/11/26 11:28:12;;;;;;;3.83;3.28;;;;;;;;;;6315099;28;20048;-77
2023/11/26 11:31:22;;;;;;;5.30;2.42;;;;;;;;;;6298488;27;20058;-76
2023/11/26 11:34:24;;;;;;;5.35;4.85;;;;;;;;;;6318910;27;20778;-78
2023/11/26 11:38:01;;;;;;;14.70;3.63;;;;;;;;;;6340830;27;20077;-77
2023/11/26 11:41:11;;;;;;;4.93;4.47;;;;;;;;;;6309926;28;20096;-76
2023/11/26 11:44:36;;;;;;;5.45;4.53;;;;;;;;;;6314309;28;20039;-77
2023/11/26 11:47:42;;;;;;;4.60;3.97;;;;;;;;;;6327767;28;20038;-76
2023/11/26 11:50:46;;;;;;;9.13;8.43;;;;;;;;;;6293695;28;20092;-77
2023/11/26 11:53:48;;;;;;;6.70;5.60;;;;;;;;;;6314347;28;20055;-77
2023/11/26 11:56:58;;;;;;;6.25;5.68;;;;;;;;;;6318932;28;20050;-77
2023/11/26 12:00:04;;;;;;;6.22;3.60;;;;;;;;;;6334126;27;20131;-77
2023/11/26 12:03:13;;;;;;;7.57;5.07;;;;;;;;;;6346024;27;20050;-78
2023/11/26 12:06:17;;;;;;;4.20;2.88;;;;;;;;;;6336081;27;20047;-77
2023/11/26 12:09:22;;;;;;;5.25;3.58;;;;;;;;;;6336495;28;20216;-78
2023/11/26 12:12:24;;;;;;;3.40;2.80;;;;;;;;;;6334690;28;20055;-78
2023/11/26 12:15:28;;;;;;;6.70;5.13;;;;;;;;;;6341868;28;20126;-77
2023/11/26 12:18:31;;;;;;;4.88;4.00;;;;;;;;;;6340552;28;20120;-78
2023/11/26 12:21:34;;;;;;;3.55;3.08;;;;;;;;;;6325717;28;20651;-79
2023/11/26 12:24:37;;;;;;;4.70;3.70;;;;;;;;;;6315285;28;20043;-79
2023/11/26 12:27:40;;;;;;;4.97;3.15;;;;;;;;;;6332719;28;20063;-79
2023/11/26 12:30:54;;;;;;;5.50;3.22;;;;;;;;;;6329469;28;20035;-78
2023/11/26 12:33:57;;;;;;;5.00;3.55;;;;;;;;;;6324218;28;20188;-79
2023/11/26 12:37:00;;;;;;;5.80;4.15;;;;;;;;;;6315857;28;20048;-78
2023/11/26 12:40:06;;;;;;;5.78;3.55;;;;;;;;;;6334248;28;20067;-80
2023/11/26 12:43:11;;;;;;;5.82;3.75;;;;;;;;;;6318125;28;20052;-79
2023/11/26 12:46:16;;;;;;;3.88;2.78;;;;;;;;;;6304027;28;20059;-78
2023/11/26 12:49:21;;;;;;;5.72;3.25;;;;;;;;;;6327502;27;20047;-78
2023/11/26 12:52:31;;;;;;;8.07;5.13;;;;;;;;;;6340034;28;20050;-78
2023/11/26 12:55:33;;;;;;;10.52;5.72;;;;;;;;;;6336348;28;20063;-79
2023/11/26 12:58:38;;;;;;;7.65;4.90;;;;;;;;;;6324270;28;20125;-79
2023/11/26 13:01:40;;;;;;;6.53;4.40;;;;;;;;;;6352180;27;20116;-78
2023/11/26 13:04:45;;;;;;;4.40;3.20;;;;;;;;;;6332653;28;20036;-80
2023/11/26 13:07:47;;;;;;;4.13;3.45;;;;;;;;;;6322859;27;20051;-78
2023/11/26 13:10:52;;;;;;;6.78;4.60;;;;;;;;;;6325706;27;20544;-80
2023/11/26 13:14:04;;;;;;;4.40;2.90;;;;;;;;;;6339600;28;20551;-80
2023/11/26 13:17:07;;;;;;;4.38;3.05;;;;;;;;;;6348770;27;20099;-80
2023/11/26 13:20:12;;;;;;;5.80;4.28;;;;;;;;;;6342656;27;20043;-81
2023/11/26 13:23:16;;;;;;;;;;;;;;;;;;6308760;28;20044;-81
2023/11/26 13:26:18;;;;;;;4.65;3.30;;;;;;;;;;6330767;27;19923;-81
2023/11/26 13:29:20;;;;;;;4.20;2.70;;;;;;;;;;6340485;27;20438;-82
2023/11/26 13:32:23;;;;;;;5.88;3.70;;;;;;;;;;6319028;27;20138;-81
2023/11/26 13:35:25;;;;;;;6.63;4.05;;;;;;;;;;6327821;27;20477;-81
2023/11/26 13:38:28;;;;;;;4.35;3.95;;;;;;;;;;6342520;27;20782;-81
2023/11/26 13:41:31;;;;;;;3.72;2.95;;;;;;;;;;6335742;27;20048;-81
2023/11/26 13:44:35;;;;;;;4.53;2.85;;;;;;;;;;6301054;28;20043;-81
2023/11/26 13:47:38;;;;;;;5.18;3.75;;;;;;;;;;6335516;27;20043;-82
2023/11/26 13:50:40;;;;;;;9.18;4.32;;;;;;;;;;6329715;28;20795;-81
2023/11/26 13:53:42;;;;;;;3.75;2.65;;;;;;;;;;6324585;28;20043;-80
2023/11/26 13:56:47;;;;;;;4.22;3.40;;;;;;;;;;6303989;27;20036;-80
2023/11/26 13:59:51;;;;;;;6.25;4.88;;;;;;;;;;6339516;27;20050;-80
2023/11/26 14:02:54;;;;;;;5.88;3.60;;;;;;;;;;6328704;27;20048;-82
2023/11/26 14:05:56;;;;;;;4.90;3.65;;;;;;;;;;6303697;28;20031;-80
2023/11/26 14:08:58;;;;;;;8.55;4.80;;;;;;;;;;6340090;27;20047;-80
2023/11/26 14:12:00;;;;;;;7.35;5.28;;;;;;;;;;6340467;27;20054;-80
2023/11/26 14:15:04;;;;;;;6.90;5.65;;;;;;;;;;6325469;27;20513;-80
2023/11/26 14:18:07;;;;;;;9.50;5.75;;;;;;;;;;6340404;27;20054;-79
2023/11/26 14:21:12;;;;;;;8.93;5.03;;;;;;;;;;6316921;28;20048;-80
2023/11/26 14:24:15;;;;;;;6.70;4.75;;;;;;;;;;6319400;27;20067;-80
2023/11/26 14:27:17;;;;;;;6.90;5.32;;;;;;;;;;6325047;27;20189;-79
2023/11/26 14:30:19;;;;;;;6.13;5.50;;;;;;;;;;6328502;28;20169;-79
2023/11/26 14:33:22;;;;;;;5.03;2.95;;;;;;;;;;6321552;27;20044;-80
2023/11/26 14:36:25;;;;;;;6.20;3.88;;;;;;;;;;6303113;28;20602;-80
2023/11/26 14:39:27;;;;;;;4.18;2.97;;;;;;;;;;6324401;27;20226;-79
2023/11/26 14:42:31;;;;;;;5.10;3.35;;;;;;;;;;6334826;28;20554;-79
2023/11/26 14:45:35;;;;;;;8.55;5.47;;;;;;;;;;6342096;27;20044;-79
2023/11/26 14:48:39;;;;;;;5.45;4.93;;;;;;;;;;6304266;27;20058;-79
2023/11/26 14:51:42;;;;;;;5.95;4.75;;;;;;;;;;6338359;27;20031;-78
2023/11/26 14:54:46;;;;;;;7.00;6.28;;;;;;;;;;6339817;27;20048;-80
2023/11/26 14:57:49;;;;;;;7.50;5.00;;;;;;;;;;6337649;28;20103;-79
2023/11/26 15:00:51;;;;;;;10.02;9.30;;;;;;;;;;6321251;28;20497;-79
2023/11/26 15:03:55;;;;;;;9.65;5.78;;;;;;;;;;6332904;28;20047;-79
2023/11/26 15:06:58;;;;;;;5.30;4.80;;;;;;;;;;6338247;27;20929;-79
2023/11/26 15:10:00;;;;;;;5.75;4.68;;;;;;;;;;6343075;27;20116;-78
2023/11/26 15:13:03;;;;;;;6.97;5.60;;;;;;;;;;6340767;28;20071;-78
2023/11/26 15:16:06;;;;;;;7.35;6.07;;;;;;;;;;6337459;28;20051;-78
2023/11/26 15:19:09;;;;;;;9.40;5.78;;;;;;;;;;6318252;27;20039;-78
2023/11/26 15:22:11;;;;;;;9.13;5.63;;;;;;;;;;6333494;27;20055;-79
2023/11/26 15:25:14;;;;;;;8.25;4.65;;;;;;;;;;6334244;27;20046;-78
2023/11/26 15:28:16;;;;;;;10.15;7.25;;;;;;;;;;6333198;27;20047;-77
2023/11/26 15:31:18;;;;;;;7.60;4.07;;;;;;;;;;6327349;27;20036;-77
2023/11/26 15:34:21;;;;;;;8.20;7.40;;;;;;;;;;6331492;27;20039;-77
2023/11/26 15:37:25;;;;;;;8.82;6.70;;;;;;;;;;6347726;27;20039;-76
2023/11/26 15:40:27;;;;;;;6.65;4.18;;;;;;;;;;6337402;27;20143;-76
2023/11/26 15:43:29;;;;;;;5.93;3.70;;;;;;;;;;6330275;27;20079;-76
2023/11/26 15:46:33;;;;;;;4.88;3.22;;;;;;;;;;6317647;27;20063;-76
2023/11/26 15:49:38;;;;;;;6.10;3.42;;;;;;;;;;6341606;27;20051;-76
2023/11/26 15:52:40;;;;;;;6.05;3.13;;;;;;;;;;6305799;27;20046;-76
2023/11/26 15:55:43;;;;;;;9.55;7.10;;;;;;;;;;6298070;28;20046;-76
2023/11/26 15:58:45;;;;;;;7.10;6.10;;;;;;;;;;6319590;27;20544;-77
2023/11/26 16:01:48;;;;;;;7.72;4.15;;;;;;;;;;6344534;27;20900;-76
2023/11/26 16:04:51;;;;;;;8.50;5.68;;;;;;;;;;6339099;27;20073;-76
2023/11/26 16:07:54;;;;;;;12.13;7.28;;;;;;;;;;6336122;27;20620;-76
2023/11/26 16:10:56;;;;;;;10.18;7.90;;;;;;;;;;6320802;28;20050;-76
2023/11/26 16:13:58;;;;;;;13.65;8.23;;;;;;;;;;6321838;28;20036;-76
2023/11/26 16:17:00;;;;;;;21.63;9.43;;;;;;;;;;6351286;28;20080;-76
2023/11/26 16:20:22;;;;;;;14.70;7.63;;;;;;;;;;6361862;28;20055;-77
2023/11/26 16:23:25;;;;;;;17.48;10.60;;;;;;;;;;6336367;28;20607;-77
2023/11/26 16:26:27;;;;;;;12.70;8.10;;;;;;;;;;6342440;28;20047;-77
2023/11/26 16:29:30;;;;;;;13.98;7.90;;;;;;;;;;6336779;28;20047;-77
2023/11/26 16:32:32;;;;;;;9.98;6.10;;;;;;;;;;6334058;28;20127;-77
2023/11/26 16:35:36;;;;;;;13.38;8.45;;;;;;;;;;6339267;27;20047;-76
2023/11/26 16:38:38;;;;;;;18.67;7.45;;;;;;;;;;6321907;28;20048;-77
2023/11/26 16:41:42;;;;;;;12.20;8.13;;;;;;;;;;6349580;27;20051;-77
2023/11/26 16:44:44;;;;;;;14.73;6.70;;;;;;;;;;6346266;27;20044;-77
2023/11/26 16:47:49;;;;;;;14.10;6.22;;;;;;;;;;6336944;28;20067;-77
2023/11/26 16:50:52;;;;;;;12.65;7.05;;;;;;;;;;6318063;28;20238;-77
2023/11/26 16:53:54;;;;;;;8.73;6.53;;;;;;;;;;6351616;27;20063;-77
2023/11/26 16:57:00;;;;;;;17.17;7.88;;;;;;;;;;6322733;28;20043;-77
2023/11/26 17:00:08;;;;;;;17.98;12.60;;;;;;;;;;6340218;28;20168;-75
2023/11/26 17:03:12;;;;;;;13.55;7.63;;;;;;;;;;6344255;27;20048;-75
2023/11/26 17:06:14;;;;;;;11.63;6.15;;;;;;;;;;6343128;27;20234;-76
2023/11/26 17:09:16;;;;;;;11.30;7.57;;;;;;;;;;6327861;27;20073;-77
2023/11/26 17:12:18;;;;;;;11.85;8.23;;;;;;;;;;6327598;27;20043;-77
2023/11/26 17:15:22;;;;;;;7.25;4.43;;;;;;;;;;6346682;27;20046;-77
2023/11/26 17:18:24;;;;;;;10.10;7.55;;;;;;;;;;6346269;27;20043;-76
2023/11/26 17:21:26;;;;;;;18.85;10.98;;;;;;;;;;6350957;27;20035;-77
2023/11/26 17:24:28;;;;;;;13.60;10.13;;;;;;;;;;6341661;27;20069;-77
2023/11/26 17:27:30;;;;;;;18.25;10.35;;;;;;;;;;6337792;28;20648;-76
2023/11/26 17:30:33;;;;;;;17.25;7.70;;;;;;;;;;6337094;28;20046;-77
2023/11/26 17:33:35;;;;;;;16.23;8.82;;;;;;;;;;6337832;28;20058;-77
2023/11/26 17:36:40;;;;;;;14.07;9.18;;;;;;;;;;6342675;27;20039;-77
2023/11/26 17:39:42;;;;;;;16.48;9.82;;;;;;;;;;6339835;27;20434;-76
2023/11/26 17:42:44;;;;;;;17.48;10.23;;;;;;;;;;6350720;27;20460;-76
2023/11/26 17:45:47;;;;;;;10.52;6.90;;;;;;;;;;6320331;28;20051;-76
2023/11/26 17:48:50;;;;;;;16.75;10.05;;;;;;;;;;6334774;28;20043;-77
2023/11/26 17:51:52;;;;;;;27.58;16.27;;;;;;;;;;6322003;27;20690;-76
2023/11/26 17:54:55;;;;;;;21.45;14.30;;;;;;;;;;6303457;28;20047;-76
2023/11/26 17:57:58;;;;;;;19.73;11.30;;;;;;;;;;6340758;27;20073;-76
2023/11/26 18:01:01;;;;;;;23.45;12.95;;;;;;;;;;6327453;27;20043;-75
2023/11/26 18:04:04;;;;;;;10.02;7.15;;;;;;;;;;6322174;28;20047;-76
2023/11/26 18:07:07;;;;;;;24.35;12.77;;;;;;;;;;6338306;27;20047;-76
2023/11/26 18:10:09;;;;;;;14.18;6.57;;;;;;;;;;6347619;27;20042;-74
2023/11/26 18:13:11;;;;;;;17.25;9.32;;;;;;;;;;6319315;27;20184;-76
2023/11/26 18:16:14;;;;;;;16.75;13.07;;;;;;;;;;6347495;27;20577;-76
2023/11/26 18:19:16;;;;;;;10.23;6.40;;;;;;;;;;6341340;27;20464;-76
2023/11/26 18:22:18;;;;;;;8.07;5.90;;;;;;;;;;6330408;27;20548;-76
2023/11/26 18:25:21;;;;;;;7.85;4.45;;;;;;;;;;6319320;27;20044;-76
2023/11/26 18:28:22;;;;;;;7.07;6.28;;;;;;;;;;6332246;27;20128;-76
2023/11/26 18:31:25;;;;;;;6.47;4.82;;;;;;;;;;6341592;27;20613;-76
2023/11/26 18:34:27;;;;;;;10.77;8.25;;;;;;;;;;6343988;27;20042;-77
2023/11/26 18:37:29;;;;;;;11.93;9.27;;;;;;;;;;6326419;28;20520;-76
2023/11/26 18:40:32;;;;;;;8.75;6.25;;;;;;;;;;6318261;27;20505;-76
2023/11/26 18:43:34;;;;;;;4.95;3.65;;;;;;;;;;6335536;28;20566;-74
2023/11/26 18:46:36;;;;;;;9.27;5.32;;;;;;;;;;6333118;27;20047;-74
2023/11/26 18:49:38;;;;;;;6.68;4.88;;;;;;;;;;6319158;27;20133;-76
2023/11/26 18:52:41;;;;;;;5.55;2.65;;;;;;;;;;6333898;27;20039;-74
2023/11/26 18:55:43;;;;;;;6.57;4.82;;;;;;;;;;6334324;28;20032;-76
2023/11/26 18:58:47;;;;;;;4.38;3.67;;;;;;;;;;6306246;28;20071;-74
2023/11/26 19:01:49;;;;;;;3.30;2.55;;;;;;;;;;6330515;27;20486;-74
2023/11/26 19:04:52;;;;;;;9.40;6.47;;;;;;;;;;6335523;27;20044;-74
2023/11/26 19:07:54;;;;;;;5.82;4.55;;;;;;;;;;6311551;28;20043;-74
2023/11/26 19:10:56;;;;;;;7.13;4.20;;;;;;;;;;6335576;28;20048;-74
2023/11/26 19:13:59;;;;;;;5.45;5.05;;;;;;;;;;6311324;28;20590;-74
2023/11/26 19:17:01;;;;;;;5.00;3.97;;;;;;;;;;6352650;27;20110;-75
2023/11/26 19:20:04;;;;;;;3.80;3.40;;;;;;;;;;6337292;27;20146;-76
2023/11/26 19:23:07;;;;;;;3.38;2.92;;;;;;;;;;6322373;27;20056;-75
2023/11/26 19:26:13;;;;;;;7.40;5.20;;;;;;;;;;6340553;27;20047;-74
2023/11/26 19:29:16;;;;;;;8.32;4.47;;;;;;;;;;6343513;27;20046;-73
2023/11/26 19:32:18;;;;;;;9.50;5.30;;;;;;;;;;6337433;27;20036;-75
2023/11/26 19:35:20;;;;;;;9.50;6.00;;;;;;;;;;6340679;27;20185;-74
2023/11/26 19:38:24;;;;;;;9.02;6.15;;;;;;;;;;6316533;28;20075;-73
2023/11/26 19:41:27;;;;;;;6.43;4.10;;;;;;;;;;6330117;28;20115;-75
2023/11/26 19:44:29;;;;;;;4.75;3.88;;;;;;;;;;6298891;27;20134;-74
2023/11/26 19:47:31;;;;;;;7.88;6.05;;;;;;;;;;6327049;27;20044;-75
2023/11/26 19:50:40;;;;;;;4.97;4.45;;;;;;;;;;6294735;27;20539;-74
2023/11/26 19:53:43;;;;;;;4.72;3.95;;;;;;;;;;6300051;28;20441;-75
2023/11/26 19:56:46;;;;;;;5.45;2.78;;;;;;;;;;6327186;27;20043;-75
2023/11/26 19:59:49;;;;;;;5.13;2.55;;;;;;;;;;6316402;28;20059;-75
2023/11/26 20:02:51;;;;;;;8.52;6.93;;;;;;;;;;6322647;28;20804;-75
2023/11/26 20:05:55;;;;;;;8.07;7.38;;;;;;;;;;6306807;27;20040;-75
2023/11/26 20:08:57;;;;;;;4.65;3.42;;;;;;;;;;6337849;28;20050;-75
2023/11/26 20:11:59;;;;;;;4.97;3.50;;;;;;;;;;6336023;28;20052;-77
2023/11/26 20:15:02;;;;;;;3.38;2.25;;;;;;;;;;6306553;28;20051;-75
2023/11/26 20:18:04;;;;;;;3.45;2.58;;;;;;;;;;6342311;28;20145;-76
2023/11/26 20:21:07;;;;;;;4.35;3.60;;;;;;;;;;6352671;28;20054;-76
2023/11/26 20:24:16;;;;;;;3.88;2.92;;;;;;;;;;6327545;28;20048;-75
2023/11/26 20:27:18;;;;;;;4.93;4.47;;;;;;;;;;6335841;27;20485;-75
2023/11/26 20:30:20;;;;;;;5.93;4.22;;;;;;;;;;6327435;28;20054;-75
2023/11/26 20:33:22;;;;;;;5.30;3.67;;;;;;;;;;6340923;28;20914;-74
2023/11/26 20:36:25;;;;;;;5.82;3.67;;;;;;;;;;6316865;28;20040;-72
2023/11/26 20:39:27;;;;;;;5.85;3.35;;;;;;;;;;6331523;28;20047;-73
2023/11/26 20:42:29;;;;;;;4.07;3.60;;;;;;;;;;6329679;28;20043;-73
2023/11/26 20:45:31;;;;;;;6.63;4.07;;;;;;;;;;6323234;28;20044;-73
2023/11/26 20:48:33;;;;;;;6.18;5.05;;;;;;;;;;6328691;28;20126;-73
2023/11/26 20:51:35;;;;;;;5.32;4.75;;;;;;;;;;6330880;28;20048;-74
2023/11/26 20:54:38;;;;;;;3.53;2.50;;;;;;;;;;6335337;28;20094;-74
2023/11/26 20:57:40;;;;;;;5.38;4.32;;;;;;;;;;6340349;28;20090;-73
2023/11/26 21:00:44;;;;;;;4.20;3.35;;;;;;;;;;6333453;28;20055;-73
2023/11/26 21:03:47;;;;;;;4.05;3.10;;;;;;;;;;6304921;28;20098;-73
2023/11/26 21:06:49;;;;;;;4.22;2.85;;;;;;;;;;6311336;28;20130;-73
2023/11/26 21:09:51;;;;;;;4.97;3.53;;;;;;;;;;6347909;28;20046;-73
2023/11/26 21:12:53;;;;;;;7.15;4.07;;;;;;;;;;6333531;27;20043;-74